TFL3005 EHAM-LGKF
Flight info
| Callsign | TFL3005 |
|---|---|
| Flight time | N/A |
| Altitude | 33000 |
| Route | EDUPO Z739 MISGO DCT ASBON DCT TUSUK DCT UTABA DCT BEMKI DCT ELMEM DCT DIRAB DCT RASUG DCT OKLAX DCT SIPAL DCT RODON DCT LIMJA DCT PITAS UN732 KRK UT321 ASTUS |
| Aircraft | B738/M-SDE2E3FGHIRWXY/LB1 |
Departure
| Time | N/A |
|---|---|
| Airport | Amsterdam Airport Schiphol (EHAM) |
Arrival
| Time | 2026-04-25 18:27 |
|---|---|
| Airport | Kefallinia Airport (LGKF) |
| Time | Latitude | Longitude | Altitude | Speed | Heading |
|---|---|---|---|---|---|
| 2026-04-25 17:51 | 40.23303 | 19.68822 | 33780 ft | 473 kts | 157° |
| 2026-04-25 17:51 | 40.20215 | 19.70273 | 33446 ft | 472 kts | 157° |
| 2026-04-25 17:51 | 40.17167 | 19.71704 | 33124 ft | 470 kts | 157° |
| 2026-04-25 17:52 | 40.14081 | 19.73151 | 32718 ft | 471 kts | 157° |
| 2026-04-25 17:52 | 40.13042 | 19.73639 | 32589 ft | 471 kts | 157° |
| 2026-04-25 17:52 | 40.07903 | 19.76045 | 31954 ft | 472 kts | 157° |
| 2026-04-25 17:52 | 40.04801 | 19.77495 | 31578 ft | 473 kts | 157° |
| 2026-04-25 17:53 | 40.01695 | 19.78946 | 31206 ft | 473 kts | 157° |
| 2026-04-25 17:53 | 39.98745 | 19.80324 | 30862 ft | 474 kts | 157° |
| 2026-04-25 17:53 | 39.95530 | 19.81824 | 30482 ft | 474 kts | 157° |
| 2026-04-25 17:53 | 39.92465 | 19.83252 | 30127 ft | 474 kts | 157° |
| 2026-04-25 17:54 | 39.89357 | 19.84702 | 29715 ft | 474 kts | 157° |
| 2026-04-25 17:54 | 39.86266 | 19.86212 | 29298 ft | 475 kts | 156° |
| 2026-04-25 17:54 | 39.83186 | 19.87771 | 28898 ft | 475 kts | 155° |
| 2026-04-25 17:54 | 39.80101 | 19.89352 | 28482 ft | 477 kts | 155° |
| 2026-04-25 17:55 | 39.77009 | 19.90933 | 28089 ft | 478 kts | 156° |
| 2026-04-25 17:55 | 39.73903 | 19.92513 | 27690 ft | 480 kts | 156° |
| 2026-04-25 17:55 | 39.70783 | 19.94090 | 27284 ft | 482 kts | 156° |
| 2026-04-25 17:55 | 39.67650 | 19.95666 | 26908 ft | 483 kts | 156° |
| 2026-04-25 17:56 | 39.64508 | 19.97243 | 26533 ft | 485 kts | 156° |
| 2026-04-25 17:56 | 39.61354 | 19.98823 | 26161 ft | 486 kts | 156° |
| 2026-04-25 17:56 | 39.58194 | 20.00405 | 25799 ft | 487 kts | 156° |
| 2026-04-25 17:56 | 39.55027 | 20.01990 | 25435 ft | 488 kts | 156° |
| 2026-04-25 17:57 | 39.51857 | 20.03576 | 25075 ft | 488 kts | 156° |
| 2026-04-25 17:57 | 39.48689 | 20.05159 | 24716 ft | 487 kts | 156° |
| 2026-04-25 17:57 | 39.45500 | 20.06636 | 24359 ft | 487 kts | 162° |
| 2026-04-25 17:57 | 39.44431 | 20.07002 | 24242 ft | 487 kts | 165° |
| 2026-04-25 17:58 | 39.38806 | 20.07804 | 23684 ft | 485 kts | 176° |
| 2026-04-25 17:58 | 39.35477 | 20.07936 | 23308 ft | 483 kts | 176° |
| 2026-04-25 17:58 | 39.32130 | 20.08074 | 22900 ft | 480 kts | 176° |
| 2026-04-25 17:58 | 39.28803 | 20.08231 | 22508 ft | 477 kts | 175° |
| 2026-04-25 17:59 | 39.25494 | 20.08406 | 22102 ft | 474 kts | 175° |
| 2026-04-25 17:59 | 39.22205 | 20.08594 | 21731 ft | 472 kts | 175° |
| 2026-04-25 17:59 | 39.18932 | 20.08787 | 21347 ft | 470 kts | 175° |
| 2026-04-25 17:59 | 39.15668 | 20.08982 | 20966 ft | 467 kts | 175° |
| 2026-04-25 18:00 | 39.13523 | 20.09109 | 20741 ft | 466 kts | 175° |
| 2026-04-25 18:00 | 39.09272 | 20.09358 | 20062 ft | 445 kts | 175° |
| 2026-04-25 18:00 | 39.06234 | 20.09533 | 19564 ft | 428 kts | 175° |
| 2026-04-25 18:00 | 39.03361 | 20.09701 | 19184 ft | 411 kts | 175° |
| 2026-04-25 18:01 | 39.00544 | 20.09866 | 18820 ft | 396 kts | 175° |
| 2026-04-25 18:01 | 38.97837 | 20.10023 | 18461 ft | 383 kts | 175° |
| 2026-04-25 18:01 | 38.95216 | 20.10174 | 18078 ft | 371 kts | 175° |
| 2026-04-25 18:01 | 38.92669 | 20.10307 | 17672 ft | 361 kts | 175° |
| 2026-04-25 18:02 | 38.90192 | 20.10432 | 17272 ft | 352 kts | 175° |
| 2026-04-25 18:02 | 38.87776 | 20.10554 | 16867 ft | 343 kts | 175° |
| 2026-04-25 18:02 | 38.85417 | 20.10674 | 16493 ft | 336 kts | 175° |
| 2026-04-25 18:02 | 38.83105 | 20.10792 | 16143 ft | 327 kts | 175° |
| 2026-04-25 18:03 | 38.80857 | 20.10907 | 15826 ft | 320 kts | 175° |
| 2026-04-25 18:03 | 38.78677 | 20.11019 | 15544 ft | 315 kts | 175° |
| 2026-04-25 18:03 | 38.76500 | 20.11132 | 15259 ft | 312 kts | 175° |
| 2026-04-25 18:03 | 38.74340 | 20.11244 | 14960 ft | 309 kts | 175° |
| 2026-04-25 18:04 | 38.72189 | 20.11355 | 14680 ft | 310 kts | 175° |
| 2026-04-25 18:04 | 38.70023 | 20.11468 | 14414 ft | 313 kts | 175° |
| 2026-04-25 18:04 | 38.67840 | 20.11581 | 14132 ft | 313 kts | 175° |
| 2026-04-25 18:04 | 38.65672 | 20.11692 | 13851 ft | 311 kts | 175° |
| 2026-04-25 18:05 | 38.63518 | 20.11802 | 13535 ft | 309 kts | 175° |
| 2026-04-25 18:05 | 38.62102 | 20.11875 | 13328 ft | 308 kts | 175° |
| 2026-04-25 18:05 | 38.59964 | 20.11984 | 13019 ft | 306 kts | 176° |
| 2026-04-25 18:05 | 38.57151 | 20.12128 | 12610 ft | 304 kts | 176° |
| 2026-04-25 18:06 | 38.55042 | 20.12236 | 12306 ft | 303 kts | 176° |
| 2026-04-25 18:06 | 38.52937 | 20.12344 | 11994 ft | 301 kts | 176° |
| 2026-04-25 18:06 | 38.51553 | 20.12415 | 11813 ft | 300 kts | 176° |
| 2026-04-25 18:06 | 38.49471 | 20.12522 | 11510 ft | 299 kts | 176° |
| 2026-04-25 18:07 | 38.47396 | 20.12628 | 11218 ft | 297 kts | 176° |
| 2026-04-25 18:07 | 38.45333 | 20.12733 | 10916 ft | 296 kts | 176° |
| 2026-04-25 18:07 | 38.43282 | 20.12588 | 10621 ft | 297 kts | 192° |
| 2026-04-25 18:07 | 38.41302 | 20.11887 | 10359 ft | 294 kts | 197° |
| 2026-04-25 18:08 | 38.38794 | 20.10606 | 9959 ft | 293 kts | 212° |
| 2026-04-25 18:08 | 38.37662 | 20.09622 | 9727 ft | 290 kts | 215° |
| 2026-04-25 18:08 | 38.36034 | 20.08108 | 9262 ft | 287 kts | 216° |
| 2026-04-25 18:08 | 38.34437 | 20.06670 | 9033 ft | 284 kts | 213° |
| 2026-04-25 18:09 | 38.32768 | 20.05307 | 8771 ft | 286 kts | 210° |
| 2026-04-25 18:09 | 38.31032 | 20.04042 | 8522 ft | 288 kts | 207° |
| 2026-04-25 18:09 | 38.29245 | 20.02885 | 8269 ft | 287 kts | 204° |
| 2026-04-25 18:09 | 38.28026 | 20.02175 | 8104 ft | 285 kts | 202° |
| 2026-04-25 18:10 | 38.25604 | 20.00941 | 7764 ft | 281 kts | 199° |
| 2026-04-25 18:10 | 38.23763 | 20.00149 | 7510 ft | 278 kts | 195° |
| 2026-04-25 18:10 | 38.21907 | 19.99472 | 7278 ft | 275 kts | 193° |
| 2026-04-25 18:10 | 38.20055 | 19.98914 | 7025 ft | 273 kts | 190° |
| 2026-04-25 18:11 | 38.18196 | 19.98467 | 6789 ft | 271 kts | 187° |
| 2026-04-25 18:11 | 38.16340 | 19.98131 | 6570 ft | 268 kts | 184° |
| 2026-04-25 18:11 | 38.14495 | 19.97905 | 6351 ft | 265 kts | 182° |
| 2026-04-25 18:11 | 38.12672 | 19.97784 | 6127 ft | 266 kts | 179° |
| 2026-04-25 18:12 | 38.10812 | 19.97765 | 5900 ft | 269 kts | 176° |
| 2026-04-25 18:12 | 38.08945 | 19.97853 | 5668 ft | 268 kts | 174° |
| 2026-04-25 18:12 | 38.07089 | 19.98046 | 5450 ft | 267 kts | 172° |
| 2026-04-25 18:12 | 38.05249 | 19.98343 | 5226 ft | 266 kts | 170° |
| 2026-04-25 18:13 | 38.03418 | 19.98717 | 4998 ft | 266 kts | 169° |
| 2026-04-25 18:13 | 38.01612 | 19.99172 | 4785 ft | 265 kts | 166° |
| 2026-04-25 18:13 | 37.99828 | 19.99740 | 4542 ft | 264 kts | 163° |
| 2026-04-25 18:14 | 37.96935 | 20.02259 | 4069 ft | 257 kts | 111° |
| 2026-04-25 18:14 | 37.96623 | 20.04434 | 3922 ft | 248 kts | 83° |
| 2026-04-25 18:14 | 37.97012 | 20.06524 | 3956 ft | 245 kts | 66° |
| 2026-04-25 18:14 | 37.97177 | 20.07058 | 3959 ft | 248 kts | 66° |
| 2026-04-25 18:15 | 37.97326 | 20.07521 | 3961 ft | 250 kts | 65° |
| 2026-04-25 18:15 | 37.97399 | 20.07744 | 3958 ft | 251 kts | 65° |
| 2026-04-25 18:15 | 37.97471 | 20.07962 | 3957 ft | 251 kts | 64° |
| 2026-04-25 18:16 | 37.97909 | 20.09270 | 3950 ft | 253 kts | 65° |
| 2026-04-25 18:16 | 37.98604 | 20.11333 | 3954 ft | 255 kts | 65° |
| 2026-04-25 18:16 | 37.99995 | 20.15506 | 3941 ft | 257 kts | 65° |
| 2026-04-25 18:17 | 38.00680 | 20.17593 | 3923 ft | 255 kts | 65° |
| 2026-04-25 18:17 | 38.01353 | 20.19660 | 3922 ft | 253 kts | 65° |
| 2026-04-25 18:17 | 38.02019 | 20.21715 | 3920 ft | 251 kts | 65° |
| 2026-04-25 18:17 | 38.02680 | 20.23752 | 3924 ft | 250 kts | 66° |
| 2026-04-25 18:18 | 38.03301 | 20.25833 | 3758 ft | 253 kts | 76° |
| 2026-04-25 18:18 | 38.03235 | 20.28040 | 3538 ft | 253 kts | 108° |
| 2026-04-25 18:18 | 38.02313 | 20.29902 | 3359 ft | 249 kts | 135° |
| 2026-04-25 18:18 | 38.00977 | 20.31272 | 3185 ft | 245 kts | 145° |
| 2026-04-25 18:19 | 37.99606 | 20.32469 | 3053 ft | 239 kts | 142° |
| 2026-04-25 18:19 | 37.98366 | 20.33810 | 2990 ft | 227 kts | 135° |
| 2026-04-25 18:19 | 37.97310 | 20.35248 | 2996 ft | 220 kts | 128° |
| 2026-04-25 18:19 | 37.96381 | 20.36787 | 3033 ft | 219 kts | 123° |
| 2026-04-25 18:20 | 37.95552 | 20.38416 | 3021 ft | 221 kts | 118° |
| 2026-04-25 18:20 | 37.94822 | 20.40121 | 3032 ft | 220 kts | 114° |
| 2026-04-25 18:20 | 37.94198 | 20.41891 | 3033 ft | 220 kts | 109° |
| 2026-04-25 18:20 | 37.93699 | 20.43692 | 3033 ft | 219 kts | 105° |
| 2026-04-25 18:21 | 37.93319 | 20.45557 | 3030 ft | 219 kts | 98° |
| 2026-04-25 18:21 | 37.93063 | 20.47458 | 3049 ft | 218 kts | 94° |
| 2026-04-25 18:21 | 37.92930 | 20.49374 | 3027 ft | 219 kts | 89° |
| 2026-04-25 18:21 | 37.92923 | 20.51290 | 3022 ft | 217 kts | 85° |
| 2026-04-25 18:22 | 37.93038 | 20.53182 | 3030 ft | 214 kts | 81° |
| 2026-04-25 18:22 | 37.93178 | 20.54407 | 3024 ft | 211 kts | 76° |
| 2026-04-25 18:22 | 37.93611 | 20.56817 | 3027 ft | 208 kts | 70° |
| 2026-04-25 18:22 | 37.94058 | 20.58547 | 3009 ft | 205 kts | 65° |
| 2026-04-25 18:23 | 37.94602 | 20.60212 | 3032 ft | 205 kts | 63° |
| 2026-04-25 18:23 | 37.95314 | 20.61776 | 3006 ft | 204 kts | 40° |
| 2026-04-25 18:23 | 37.96555 | 20.62557 | 3021 ft | 202 kts | 4° |
| 2026-04-25 18:23 | 37.97927 | 20.62290 | 2915 ft | 205 kts | 333° |
| 2026-04-25 18:24 | 37.99106 | 20.61310 | 2662 ft | 199 kts | 324° |
| 2026-04-25 18:24 | 38.00218 | 20.60316 | 2387 ft | 193 kts | 325° |
| 2026-04-25 18:24 | 38.01302 | 20.59345 | 2119 ft | 187 kts | 325° |
| 2026-04-25 18:24 | 38.02334 | 20.58425 | 2016 ft | 177 kts | 326° |
| 2026-04-25 18:25 | 38.03331 | 20.57542 | 2025 ft | 173 kts | 325° |
| 2026-04-25 18:25 | 38.04306 | 20.56678 | 1932 ft | 173 kts | 326° |
| 2026-04-25 18:25 | 38.05298 | 20.55790 | 1628 ft | 171 kts | 323° |
| 2026-04-25 18:25 | 38.06244 | 20.54901 | 1291 ft | 168 kts | 324° |
| 2026-04-25 18:26 | 38.07196 | 20.54100 | 965 ft | 160 kts | 327° |
| 2026-04-25 18:26 | 38.08113 | 20.53356 | 791 ft | 152 kts | 324° |
| 2026-04-25 18:26 | 38.08997 | 20.52591 | 611 ft | 153 kts | 325° |
| 2026-04-25 18:26 | 38.09868 | 20.51835 | 425 ft | 150 kts | 324° |
| 2026-04-25 18:27 | 38.10731 | 20.51114 | 195 ft | 147 kts | 325° |
| 2026-04-25 18:27 | 38.11553 | 20.50423 | 67 ft | 135 kts | 325° |
| 2026-04-25 18:27 | 38.12246 | 20.49840 | 54 ft | 99 kts | 327° |
| 2026-04-25 18:27 | 38.12672 | 20.49483 | 47 ft | 30 kts | 327° |
| 2026-04-25 18:28 | 38.12826 | 20.49354 | 41 ft | 20 kts | 331° |
| 2026-04-25 18:28 | 38.12899 | 20.49310 | 39 ft | 9 kts | 255° |
| 2026-04-25 18:28 | 38.12849 | 20.49313 | 40 ft | 9 kts | 131° |
| 2026-04-25 18:29 | 38.12717 | 20.49446 | 45 ft | 13 kts | 146° |
| 2026-04-25 18:29 | 38.12643 | 20.49511 | 48 ft | 13 kts | 146° |
| 2026-04-25 18:30 | 38.12393 | 20.49722 | 53 ft | 17 kts | 146° |
| 2026-04-25 18:30 | 38.12295 | 20.49806 | 59 ft | 17 kts | 146° |
| 2026-04-25 18:30 | 38.12198 | 20.49884 | 63 ft | 16 kts | 148° |
| 2026-04-25 18:30 | 38.12106 | 20.49961 | 61 ft | 16 kts | 146° |
| 2026-04-25 18:31 | 38.12017 | 20.50035 | 61 ft | 15 kts | 145° |
| 2026-04-25 18:31 | 38.11935 | 20.50107 | 67 ft | 14 kts | 147° |
| 2026-04-25 18:31 | 38.11892 | 20.50202 | 67 ft | 11 kts | 87° |
| 2026-04-25 18:31 | 38.11896 | 20.50260 | 64 ft | 4 kts | 87° |
| 2026-04-25 18:32 | 38.11891 | 20.50294 | 67 ft | 4 kts | 112° |
| 2026-04-25 18:32 | 38.11876 | 20.50325 | 62 ft | 4 kts | 106° |
| 2026-04-25 18:32 | 38.11891 | 20.50375 | 64 ft | 8 kts | 56° |
| 2026-04-25 18:32 | 38.11907 | 20.50405 | 67 ft | 0 kts | 56° |